createdAt,value
2017-12-31T00:00:42.940Z,100119.05
2017-12-31T00:01:47.632Z,100120.49
2017-12-31T00:02:52.163Z,100117.12
2017-12-31T00:03:56.646Z,100110.62
2017-12-31T00:05:01.221Z,100112.92
2017-12-31T00:06:05.752Z,100112.09
2017-12-31T00:07:10.227Z,100114.86
2017-12-31T00:08:14.725Z,100116.56
2017-12-31T00:09:19.448Z,100121.87
2017-12-31T00:10:23.907Z,100119.13
2017-12-31T00:11:28.647Z,100112.83
2017-12-31T00:12:33.117Z,100116.92
2017-12-31T00:13:37.563Z,100117.06
2017-12-31T00:14:41.979Z,100114.23
2017-12-31T00:15:47.495Z,100113.33
2017-12-31T00:16:52.308Z,100115.64
2017-12-31T00:17:56.748Z,100121.72
2017-12-31T00:19:01.357Z,100120.55
2017-12-31T00:20:06.115Z,100125.49
2017-12-31T00:21:10.507Z,100124.53
2017-12-31T00:22:15.031Z,100119.71
2017-12-31T00:23:19.458Z,100123.28
2017-12-31T00:24:23.804Z,100133.18
2017-12-31T00:25:45.232Z,100131.94
2017-12-31T00:26:50.368Z,100128.45
2017-12-31T00:27:54.801Z,100131.70
2017-12-31T00:28:59.401Z,100132.11
2017-12-31T00:30:05.564Z,100128.72
2017-12-31T00:32:19.457Z,100142.46
2017-12-31T00:33:23.901Z,100136.75
2017-12-31T00:34:28.346Z,100140.33
2017-12-31T00:35:33.136Z,100140.42
2017-12-31T00:36:37.554Z,100140.79
2017-12-31T00:37:42.019Z,100143.97
2017-12-31T00:38:46.504Z,100140.11
2017-12-31T00:39:50.966Z,100140.09
2017-12-31T00:40:55.586Z,100131.74
2017-12-31T00:41:59.989Z,100131.73
2017-12-31T00:43:04.422Z,100130.84
2017-12-31T00:44:08.908Z,100129.55
2017-12-31T00:45:15.488Z,100126.48
2017-12-31T00:46:20.924Z,100117.99
2017-12-31T00:47:25.328Z,100120.55
2017-12-31T00:48:31.017Z,100118.86
2017-12-31T00:49:35.445Z,100124.95
2017-12-31T00:50:40.028Z,100121.03
2017-12-31T00:51:44.580Z,100120.19
2017-12-31T00:54:02.960Z,100125.98
2017-12-31T00:55:07.429Z,100130.41
2017-12-31T00:56:14.713Z,100126.08
2017-12-31T00:57:19.076Z,100130.88
2017-12-31T00:58:23.452Z,100138.03
2017-12-31T00:59:28.456Z,100136.75
2017-12-31T01:00:33.666Z,100130.61
2017-12-31T01:01:38.247Z,100137.81
2017-12-31T01:02:42.708Z,100141.33
2017-12-31T01:03:47.434Z,100138.64
2017-12-31T01:04:51.891Z,100130.11
2017-12-31T01:05:56.467Z,100133.58
2017-12-31T01:07:01.174Z,100135.77
2017-12-31T01:08:05.606Z,100132.70
2017-12-31T01:09:10.151Z,100133.85
2017-12-31T01:10:14.916Z,100128.16
2017-12-31T01:11:19.473Z,100132.81
2017-12-31T01:12:23.896Z,100133.05
2017-12-31T01:13:28.444Z,100129.23
2017-12-31T01:14:33.041Z,100138.27
2017-12-31T01:15:38.015Z,100143.41
2017-12-31T01:16:42.848Z,100142.98
2017-12-31T01:17:47.250Z,100144.41
2017-12-31T01:18:52.549Z,100146.69
2017-12-31T01:19:56.930Z,100136.91
2017-12-31T01:21:01.364Z,100141.39
2017-12-31T01:22:05.886Z,100139.63
2017-12-31T01:23:10.267Z,100138.78
2017-12-31T01:24:14.758Z,100140.59
2017-12-31T01:25:19.171Z,100148.98
2017-12-31T01:26:23.657Z,100154.77
2017-12-31T01:27:28.148Z,100157.41
2017-12-31T01:28:32.526Z,100155.16
2017-12-31T01:29:36.978Z,100156.01
2017-12-31T01:30:41.833Z,100156.89
2017-12-31T01:31:46.176Z,100158.22
2017-12-31T01:32:51.760Z,100151.02
2017-12-31T01:33:56.597Z,100148.91
2017-12-31T01:35:00.997Z,100151.66
2017-12-31T01:36:05.475Z,100153.13
2017-12-31T01:37:09.879Z,100153.97
2017-12-31T01:38:14.245Z,100153.94
2017-12-31T01:39:18.714Z,100145.95
2017-12-31T01:40:23.096Z,100142.88
2017-12-31T01:41:27.565Z,100147.77
2017-12-31T01:42:31.928Z,100156.15
2017-12-31T01:43:36.437Z,100154.86
2017-12-31T01:44:40.901Z,100156.61
2017-12-31T01:45:45.476Z,100159.21
2017-12-31T01:46:51.072Z,100160.48
2017-12-31T01:47:55.744Z,100157.33
2017-12-31T01:49:04.485Z,100158.70
2017-12-31T01:50:08.831Z,100160.02
2017-12-31T01:51:13.242Z,100167.08
2017-12-31T01:52:17.615Z,100163.09
2017-12-31T01:53:22.044Z,100163.98
2017-12-31T01:54:26.354Z,100164.70
2017-12-31T01:55:31.874Z,100163.78
2017-12-31T01:56:36.532Z,100167.77
2017-12-31T01:57:40.923Z,100169.88
2017-12-31T01:58:45.901Z,100165.78
2017-12-31T01:59:50.840Z,100167.98
2017-12-31T02:00:55.577Z,100164.44
2017-12-31T02:01:59.996Z,100170.09
2017-12-31T02:03:04.394Z,100176.73
2017-12-31T02:04:12.993Z,100175.06
2017-12-31T02:05:17.349Z,100169.38
2017-12-31T02:06:21.822Z,100174.94
2017-12-31T02:07:26.137Z,100178.44
2017-12-31T02:08:30.762Z,100174.17
2017-12-31T02:09:35.264Z,100177.42
2017-12-31T02:10:40.459Z,100180.09
2017-12-31T02:11:44.793Z,100174.80
2017-12-31T02:12:49.894Z,100175.29
2017-12-31T02:13:54.371Z,100169.14
2017-12-31T02:14:59.011Z,100172.69
2017-12-31T02:16:03.414Z,100164.27
2017-12-31T02:17:08.306Z,100165.14
2017-12-31T02:18:12.864Z,100162.08
2017-12-31T02:19:17.215Z,100165.16
2017-12-31T02:20:21.727Z,100162.91
2017-12-31T02:21:26.112Z,100169.55
2017-12-31T02:22:30.468Z,100170.73
2017-12-31T02:23:35.578Z,100171.63
2017-12-31T02:24:39.984Z,100160.54
2017-12-31T02:25:44.698Z,100168.52
2017-12-31T02:26:50.025Z,100163.55
2017-12-31T02:27:54.478Z,100169.74
2017-12-31T02:28:58.957Z,100167.06
2017-12-31T02:30:04.896Z,100158.66
2017-12-31T02:31:09.522Z,100165.30
2017-12-31T02:32:13.859Z,100167.09
2017-12-31T02:33:18.283Z,100165.64
2017-12-31T02:34:22.668Z,100162.17
2017-12-31T02:35:28.171Z,100162.23
2017-12-31T02:36:33.649Z,100169.33
2017-12-31T02:37:38.016Z,100165.33
2017-12-31T02:38:42.500Z,100164.41
2017-12-31T02:39:46.876Z,100162.48
2017-12-31T02:40:51.617Z,100167.78
2017-12-31T02:41:56.711Z,100164.25
2017-12-31T02:43:01.422Z,100154.55
2017-12-31T02:44:17.464Z,100169.02
2017-12-31T02:45:22.310Z,100156.58
2017-12-31T02:46:26.725Z,100156.56
2017-12-31T02:47:31.132Z,100157.41
2017-12-31T02:48:35.709Z,100159.16
2017-12-31T02:49:40.380Z,100150.62
2017-12-31T02:50:44.847Z,100151.91
2017-12-31T02:51:50.148Z,100153.03
2017-12-31T02:52:54.593Z,100145.01
2017-12-31T02:53:59.210Z,100139.72
2017-12-31T02:55:03.580Z,100146.77
2017-12-31T02:56:08.356Z,100146.86
2017-12-31T02:57:13.295Z,100144.22
2017-12-31T02:58:17.607Z,100137.03
2017-12-31T02:59:22.137Z,100141.00
2017-12-31T03:00:26.621Z,100127.63
2017-12-31T03:01:31.655Z,100130.58
2017-12-31T03:02:36.083Z,100131.56
2017-12-31T03:03:40.487Z,100134.30
2017-12-31T03:04:44.849Z,100138.73
2017-12-31T03:05:49.210Z,100136.25
2017-12-31T03:06:53.671Z,100133.47
2017-12-31T03:07:58.095Z,100138.40
2017-12-31T03:09:02.742Z,100137.18
2017-12-31T03:10:07.182Z,100129.23
2017-12-31T03:11:11.521Z,100137.67
2017-12-31T03:12:16.915Z,100136.70
2017-12-31T03:13:21.405Z,100137.16
2017-12-31T03:14:25.822Z,100138.90
2017-12-31T03:15:31.084Z,100129.48
2017-12-31T03:16:35.776Z,100133.62
2017-12-31T03:17:40.176Z,100128.58
2017-12-31T03:18:44.661Z,100129.84
2017-12-31T03:19:49.116Z,100126.33
2017-12-31T03:20:53.793Z,100123.68
2017-12-31T03:21:58.138Z,100121.47
2017-12-31T03:23:02.965Z,100120.78
2017-12-31T03:24:07.584Z,100117.65
2017-12-31T03:25:12.334Z,100101.11
2017-12-31T03:26:16.877Z,100116.20
2017-12-31T03:27:21.242Z,100106.74
2017-12-31T03:28:25.634Z,100107.31
2017-12-31T03:29:30.716Z,100107.44
2017-12-31T03:30:35.382Z,100108.73
2017-12-31T03:31:40.125Z,100112.22
2017-12-31T03:32:44.528Z,100113.61
2017-12-31T03:33:48.932Z,100110.53
2017-12-31T03:34:53.345Z,100106.20
2017-12-31T03:35:57.789Z,100101.36
2017-12-31T03:37:02.175Z,100100.37
2017-12-31T03:38:06.860Z,100095.25
2017-12-31T03:39:11.186Z,100099.02
2017-12-31T03:40:15.824Z,100096.81
2017-12-31T03:41:20.199Z,100097.27
2017-12-31T03:42:24.821Z,100092.38
2017-12-31T03:43:30.440Z,100097.89
2017-12-31T03:44:35.190Z,100096.03
2017-12-31T03:45:54.700Z,100091.91
2017-12-31T03:46:59.069Z,100090.73
2017-12-31T03:48:03.460Z,100085.53
2017-12-31T03:49:07.912Z,100092.56
2017-12-31T03:50:12.533Z,100092.30
2017-12-31T03:51:17.304Z,100089.44
2017-12-31T03:52:21.755Z,100087.45
2017-12-31T03:53:26.061Z,100094.45
2017-12-31T03:54:31.338Z,100085.38
2017-12-31T03:55:35.683Z,100087.63
2017-12-31T03:56:40.389Z,100086.06
2017-12-31T03:57:45.006Z,100088.47
2017-12-31T03:58:49.474Z,100093.51
2017-12-31T03:59:53.821Z,100099.27
2017-12-31T04:00:58.618Z,100094.01
2017-12-31T04:02:03.336Z,100095.85
2017-12-31T04:03:08.944Z,100095.80
2017-12-31T04:04:13.827Z,100094.91
2017-12-31T04:05:18.226Z,100089.90
2017-12-31T04:06:22.602Z,100087.55
2017-12-31T04:07:27.564Z,100087.14
2017-12-31T04:08:32.819Z,100090.83
2017-12-31T04:09:37.987Z,100090.19
2017-12-31T04:10:42.452Z,100083.98
2017-12-31T04:11:46.775Z,100084.87
2017-12-31T04:12:51.207Z,100084.36
2017-12-31T04:13:55.558Z,100083.59
2017-12-31T04:15:00.685Z,100084.55
2017-12-31T04:16:05.441Z,100073.54
2017-12-31T04:17:10.071Z,100061.70
2017-12-31T04:18:14.406Z,100054.36
2017-12-31T04:19:18.752Z,100056.63
2017-12-31T04:20:23.456Z,100050.02
2017-12-31T04:21:27.859Z,100052.45
2017-12-31T04:22:32.192Z,100050.41
2017-12-31T04:23:36.516Z,100051.69
2017-12-31T04:24:41.388Z,100051.55
2017-12-31T04:25:45.712Z,100055.56
2017-12-31T04:26:50.979Z,100054.23
2017-12-31T04:27:55.312Z,100061.81
2017-12-31T04:29:00.056Z,100056.30
2017-12-31T04:30:06.557Z,100058.27
2017-12-31T04:31:10.912Z,100063.41
2017-12-31T04:32:15.632Z,100059.70
2017-12-31T04:33:20.301Z,100061.16
2017-12-31T04:34:24.643Z,100058.06
2017-12-31T04:35:28.992Z,100053.34
2017-12-31T04:36:33.336Z,100054.72
2017-12-31T04:37:37.780Z,100052.31
2017-12-31T04:38:42.189Z,100064.31
2017-12-31T04:39:48.559Z,100065.81
2017-12-31T04:40:52.916Z,100067.70
2017-12-31T04:41:57.558Z,100069.09
2017-12-31T04:43:01.943Z,100066.48
2017-12-31T04:44:06.286Z,100066.00
2017-12-31T04:45:12.246Z,100060.53
2017-12-31T04:46:17.129Z,100053.72
2017-12-31T04:47:21.994Z,100055.32
2017-12-31T04:48:31.387Z,100049.19
2017-12-31T04:49:35.914Z,100049.65
2017-12-31T04:50:40.252Z,100046.87
2017-12-31T04:51:44.585Z,100051.58
2017-12-31T04:52:49.966Z,100046.55
2017-12-31T04:53:54.424Z,100054.58
2017-12-31T04:54:58.741Z,100052.94
2017-12-31T04:56:03.184Z,100050.40
2017-12-31T04:57:08.067Z,100049.12
2017-12-31T04:58:12.550Z,100041.41
2017-12-31T04:59:17.269Z,100035.47
2017-12-31T05:00:26.589Z,100026.92
2017-12-31T05:01:31.491Z,100028.27
2017-12-31T05:02:35.890Z,100026.30
2017-12-31T05:03:40.313Z,100026.10
2017-12-31T05:04:45.059Z,100035.33
2017-12-31T05:05:51.366Z,100027.28
2017-12-31T05:06:55.754Z,100034.80
2017-12-31T05:08:00.094Z,100023.09
2017-12-31T05:09:04.679Z,100033.51
2017-12-31T05:10:15.957Z,100027.52
2017-12-31T05:11:20.721Z,100022.52
2017-12-31T05:12:25.105Z,100024.92
2017-12-31T05:13:29.679Z,100022.91
2017-12-31T05:14:34.899Z,100022.67
2017-12-31T05:15:39.707Z,100016.72
2017-12-31T05:16:44.343Z,100013.23
2017-12-31T05:17:49.200Z,100011.48
2017-12-31T05:18:53.632Z,100018.95
2017-12-31T05:19:58.010Z,100017.31
2017-12-31T05:21:02.341Z,100015.80
2017-12-31T05:22:06.685Z,100008.97
2017-12-31T05:23:13.636Z,100007.42
2017-12-31T05:24:18.116Z,100000.31
2017-12-31T05:25:22.515Z,99994.30
2017-12-31T05:26:28.556Z,100003.13
2017-12-31T05:27:32.879Z,99997.19
2017-12-31T05:28:37.208Z,100003.03
2017-12-31T05:29:41.906Z,99997.29
2017-12-31T05:30:46.499Z,100002.66
2017-12-31T05:31:50.970Z,99995.38
2017-12-31T05:32:55.831Z,99994.49
2017-12-31T05:34:00.263Z,99995.09
2017-12-31T05:35:04.633Z,99993.06
2017-12-31T05:36:08.965Z,99990.62
2017-12-31T05:37:13.281Z,99994.09
2017-12-31T05:38:17.732Z,99985.75
2017-12-31T05:39:22.078Z,99980.73
2017-12-31T05:40:27.656Z,99981.72
2017-12-31T05:41:32.868Z,99985.95
2017-12-31T05:42:37.433Z,99982.06
2017-12-31T05:43:41.865Z,99981.80
2017-12-31T05:44:46.202Z,99977.35
2017-12-31T05:45:50.883Z,99976.31
2017-12-31T05:46:55.259Z,99978.33
2017-12-31T05:47:59.941Z,99973.33
2017-12-31T05:49:04.565Z,99978.56
2017-12-31T05:50:08.879Z,99969.69
2017-12-31T05:51:13.312Z,99972.27
2017-12-31T05:52:17.745Z,99975.06
2017-12-31T05:53:22.804Z,99974.17
2017-12-31T05:54:27.210Z,99972.91
2017-12-31T05:55:32.414Z,99972.63
2017-12-31T05:56:36.716Z,99978.75
2017-12-31T05:57:41.083Z,99970.61
2017-12-31T05:58:45.368Z,99968.56
2017-12-31T05:59:50.096Z,99965.55
2017-12-31T06:00:54.822Z,99967.52
2017-12-31T06:01:59.157Z,99969.73
2017-12-31T06:03:03.468Z,99973.39
2017-12-31T06:04:07.836Z,99975.41
2017-12-31T06:05:12.229Z,99968.39
2017-12-31T06:06:16.949Z,99973.52
2017-12-31T06:07:21.300Z,99965.73
2017-12-31T06:08:25.975Z,99967.37
2017-12-31T06:09:31.315Z,99965.65
2017-12-31T06:10:35.686Z,99947.31
2017-12-31T06:11:40.077Z,99953.81
2017-12-31T06:12:44.366Z,99946.53
2017-12-31T06:13:48.717Z,99953.20
2017-12-31T06:14:53.197Z,99944.21
2017-12-31T06:15:57.722Z,99950.83
2017-12-31T06:17:02.378Z,99940.44
2017-12-31T06:18:06.676Z,99944.13
2017-12-31T06:19:11.289Z,99939.42
2017-12-31T06:20:15.702Z,99928.88
2017-12-31T06:21:20.153Z,99934.48
2017-12-31T06:22:24.756Z,99932.52
2017-12-31T06:23:29.711Z,99933.48
2017-12-31T06:24:37.347Z,99931.20
2017-12-31T06:25:41.798Z,99929.70
2017-12-31T06:26:46.097Z,99925.17
2017-12-31T06:27:50.477Z,99919.63
2017-12-31T06:28:54.815Z,99925.67
2017-12-31T06:29:59.876Z,99920.59
2017-12-31T06:31:05.130Z,99923.92
2017-12-31T06:32:09.516Z,99919.08
2017-12-31T06:33:19.275Z,99923.19
2017-12-31T06:34:23.675Z,99906.50
2017-12-31T06:35:28.039Z,99914.85
2017-12-31T06:36:32.717Z,99921.94
2017-12-31T06:37:37.142Z,99913.39
2017-12-31T06:38:41.531Z,99911.52
2017-12-31T06:39:46.715Z,99907.13
2017-12-31T06:40:52.074Z,99912.19
2017-12-31T06:41:56.463Z,99911.68
2017-12-31T06:43:01.110Z,99909.70
2017-12-31T06:44:05.434Z,99905.00
2017-12-31T06:45:12.027Z,99903.27
2017-12-31T06:46:16.368Z,99910.43
2017-12-31T06:47:20.634Z,99917.92
2017-12-31T06:48:24.923Z,99907.83
2017-12-31T06:49:29.582Z,99902.89
2017-12-31T06:50:33.882Z,99897.62
2017-12-31T06:51:38.281Z,99896.34
2017-12-31T06:52:42.688Z,99896.38
2017-12-31T06:53:47.605Z,99887.05
2017-12-31T06:54:52.070Z,99891.84
2017-12-31T06:55:56.861Z,99891.58
2017-12-31T06:57:01.197Z,99885.80
2017-12-31T06:58:05.663Z,99884.88
2017-12-31T06:59:09.992Z,99890.08
2017-12-31T07:00:17.460Z,99883.60
2017-12-31T07:01:25.270Z,99880.86
2017-12-31T07:02:29.664Z,99880.62
2017-12-31T07:03:34.036Z,99887.97
2017-12-31T07:04:38.367Z,99881.22
2017-12-31T07:05:44.243Z,99882.67
2017-12-31T07:06:48.538Z,99884.00
2017-12-31T07:07:53.248Z,99881.64
2017-12-31T07:08:58.095Z,99881.86
2017-12-31T07:10:02.430Z,99875.17
2017-12-31T07:11:06.863Z,99879.09
2017-12-31T07:12:11.173Z,99866.16
2017-12-31T07:13:15.599Z,99874.66
2017-12-31T07:14:20.220Z,99868.84
2017-12-31T07:15:24.631Z,99869.77
2017-12-31T07:16:29.976Z,99874.62
2017-12-31T07:17:41.205Z,99879.51
2017-12-31T07:18:45.697Z,99883.25
2017-12-31T07:19:52.952Z,99881.91
2017-12-31T07:20:57.429Z,99882.05
2017-12-31T07:22:01.740Z,99873.08
2017-12-31T07:23:06.110Z,99864.27
2017-12-31T07:24:10.463Z,99859.19
2017-12-31T07:25:14.846Z,99862.80
2017-12-31T07:26:19.190Z,99836.14
2017-12-31T07:27:30.951Z,99816.20
2017-12-31T07:28:35.381Z,99832.80
2017-12-31T07:29:39.704Z,99847.26
2017-12-31T07:30:44.384Z,99863.50
2017-12-31T07:31:49.773Z,99875.09
2017-12-31T07:32:54.177Z,99877.92
2017-12-31T07:33:58.821Z,99874.58
2017-12-31T07:35:03.125Z,99871.50
2017-12-31T07:36:07.431Z,99868.31
2017-12-31T07:37:11.836Z,99863.39
2017-12-31T07:38:16.204Z,99857.25
2017-12-31T07:39:20.541Z,99853.34
2017-12-31T07:40:28.270Z,99838.63
2017-12-31T07:41:32.695Z,99836.59
2017-12-31T07:42:36.996Z,99836.86
2017-12-31T07:43:41.433Z,99839.23
2017-12-31T07:44:45.745Z,99839.83
2017-12-31T07:45:51.179Z,99823.02
2017-12-31T07:46:57.449Z,99833.30
2017-12-31T07:48:01.830Z,99831.83
2017-12-31T07:49:06.143Z,99824.61
2017-12-31T07:50:10.557Z,99826.98
2017-12-31T07:51:14.888Z,99828.08
2017-12-31T07:52:19.790Z,99820.97
2017-12-31T07:53:24.232Z,99822.41
2017-12-31T07:54:28.574Z,99817.04
2017-12-31T07:55:32.986Z,99823.72
2017-12-31T07:56:37.533Z,99829.94
2017-12-31T07:57:42.004Z,99823.02
2017-12-31T07:58:47.822Z,99834.45
2017-12-31T07:59:53.140Z,99835.14
2017-12-31T08:00:57.835Z,99824.15
2017-12-31T08:02:03.985Z,99834.80
2017-12-31T08:03:08.323Z,99815.51
2017-12-31T08:04:12.656Z,99813.23
2017-12-31T08:05:16.955Z,99825.77
2017-12-31T08:06:23.796Z,99816.43
2017-12-31T08:07:28.392Z,99818.22
2017-12-31T08:08:33.922Z,99814.58
2017-12-31T08:09:38.364Z,99806.97
2017-12-31T08:10:43.020Z,99808.88
2017-12-31T08:11:48.224Z,99809.73
2017-12-31T08:12:53.089Z,99806.15
2017-12-31T08:13:57.405Z,99818.33
2017-12-31T08:15:04.532Z,99809.92
2017-12-31T08:16:09.006Z,99812.38
2017-12-31T08:17:13.927Z,99811.80
2017-12-31T08:18:18.343Z,99811.68
2017-12-31T08:19:22.679Z,99806.57
2017-12-31T08:20:28.256Z,99812.64
2017-12-31T08:21:33.326Z,99802.28
2017-12-31T08:22:38.657Z,99810.98
2017-12-31T08:23:43.418Z,99809.55
2017-12-31T08:24:47.815Z,99807.58
2017-12-31T08:25:52.259Z,99811.85
2017-12-31T08:26:56.577Z,99821.00
2017-12-31T08:28:00.972Z,99811.20
2017-12-31T08:29:05.331Z,99809.13
2017-12-31T08:30:09.748Z,99803.73
2017-12-31T08:31:14.492Z,99801.20
2017-12-31T08:32:26.534Z,99798.70
2017-12-31T08:33:30.942Z,99792.05
2017-12-31T08:34:35.281Z,99799.28
2017-12-31T08:35:39.998Z,99799.41
2017-12-31T08:36:44.392Z,99802.66
2017-12-31T08:37:48.683Z,99796.07
2017-12-31T08:38:53.071Z,99801.33
2017-12-31T08:39:57.413Z,99793.13
2017-12-31T08:41:02.146Z,99793.22
2017-12-31T08:42:06.575Z,99791.89
2017-12-31T08:43:10.909Z,99788.39
2017-12-31T08:44:15.921Z,99797.55
2017-12-31T08:45:20.505Z,99792.36
2017-12-31T08:46:25.017Z,99803.03
2017-12-31T08:47:29.341Z,99789.56
2017-12-31T08:48:33.664Z,99787.64
2017-12-31T08:49:38.188Z,99785.78
2017-12-31T08:50:42.612Z,99792.01
2017-12-31T08:51:49.204Z,99791.84
2017-12-31T08:52:53.573Z,99781.59
2017-12-31T08:53:58.300Z,99790.53
2017-12-31T08:55:02.660Z,99784.64
2017-12-31T08:56:07.192Z,99778.61
2017-12-31T08:57:11.957Z,99779.78
2017-12-31T08:58:16.772Z,99780.58
2017-12-31T08:59:21.189Z,99782.71
2017-12-31T09:00:26.701Z,99782.95
2017-12-31T09:01:32.212Z,99780.38
2017-12-31T09:02:36.728Z,99776.79
2017-12-31T09:03:41.224Z,99777.52
2017-12-31T09:04:46.639Z,99780.19
2017-12-31T09:05:51.106Z,99781.95
2017-12-31T09:06:55.544Z,99778.66
2017-12-31T09:07:59.897Z,99775.89
2017-12-31T09:09:04.378Z,99781.19
2017-12-31T09:10:09.173Z,99773.55
2017-12-31T09:11:13.890Z,99774.28
2017-12-31T09:12:18.242Z,99774.19
2017-12-31T09:13:22.625Z,99776.50
2017-12-31T09:14:27.041Z,99777.67
2017-12-31T09:15:32.328Z,99775.36
2017-12-31T09:16:36.660Z,99778.93
2017-12-31T09:17:41.462Z,99779.19
2017-12-31T09:18:45.821Z,99770.66
2017-12-31T09:19:52.359Z,99764.51
2017-12-31T09:20:56.809Z,99769.38
2017-12-31T09:22:01.179Z,99771.46
2017-12-31T09:23:06.518Z,99758.13
2017-12-31T09:24:10.900Z,99767.29
2017-12-31T09:25:15.559Z,99766.75
2017-12-31T09:26:19.913Z,99759.08
2017-12-31T09:27:24.584Z,99756.66
2017-12-31T09:28:30.251Z,99752.23
2017-12-31T09:29:34.897Z,99759.03
2017-12-31T09:30:39.233Z,99768.80
2017-12-31T09:31:43.606Z,99755.08
2017-12-31T09:32:47.985Z,99753.31
2017-12-31T09:33:52.328Z,99757.27
2017-12-31T09:34:56.703Z,99757.37
2017-12-31T09:36:01.575Z,99754.12
2017-12-31T09:37:06.009Z,99754.56
2017-12-31T09:38:10.344Z,99757.59
2017-12-31T09:39:14.706Z,99755.34
2017-12-31T09:40:23.072Z,99752.17
2017-12-31T09:41:27.659Z,99741.43
2017-12-31T09:42:32.102Z,99740.89
2017-12-31T09:43:36.446Z,99751.63
2017-12-31T09:44:40.866Z,99745.72
2017-12-31T09:45:45.485Z,99749.80
2017-12-31T09:46:50.885Z,99755.56
2017-12-31T09:47:55.349Z,99746.97
2017-12-31T09:49:00.050Z,99740.02
2017-12-31T09:50:04.358Z,99735.77
2017-12-31T09:51:08.703Z,99740.08
2017-12-31T09:52:13.049Z,99728.35
2017-12-31T09:53:17.508Z,99726.16
2017-12-31T09:54:21.996Z,99746.45
2017-12-31T09:55:26.408Z,99728.86
2017-12-31T09:56:31.516Z,99741.34
2017-12-31T09:57:35.935Z,99736.47
2017-12-31T09:58:41.069Z,99734.20
2017-12-31T09:59:45.439Z,99738.16
2017-12-31T10:00:51.007Z,99762.53
2017-12-31T10:01:55.550Z,99741.30
2017-12-31T10:02:59.968Z,99745.27
2017-12-31T10:04:04.454Z,99739.06
2017-12-31T10:05:08.876Z,99753.66
2017-12-31T10:06:13.345Z,99740.72
2017-12-31T10:07:19.825Z,99747.00
2017-12-31T10:08:24.309Z,99737.11
2017-12-31T10:09:28.901Z,99748.03
2017-12-31T10:10:33.303Z,99742.22
2017-12-31T10:11:37.661Z,99754.22
2017-12-31T10:12:42.358Z,99746.58
2017-12-31T10:13:46.948Z,99746.22
2017-12-31T10:14:51.961Z,99747.13
2017-12-31T10:15:56.437Z,99750.70
2017-12-31T10:17:00.896Z,99750.84
2017-12-31T10:18:05.537Z,99739.59
2017-12-31T10:19:09.885Z,99747.23
2017-12-31T10:20:14.300Z,99747.23
2017-12-31T10:21:18.735Z,99730.67
2017-12-31T10:22:23.290Z,99736.13
2017-12-31T10:23:27.741Z,99744.06
2017-12-31T10:24:32.416Z,99747.27
2017-12-31T10:25:36.808Z,99756.03
2017-12-31T10:26:41.323Z,99742.77
2017-12-31T10:27:47.466Z,99739.23
2017-12-31T10:28:52.793Z,99748.42
2017-12-31T10:29:57.214Z,99734.53
2017-12-31T10:31:01.910Z,99730.06
2017-12-31T10:32:10.761Z,99766.98
2017-12-31T10:33:15.291Z,99730.18
2017-12-31T10:34:19.622Z,99743.92
2017-12-31T10:35:23.977Z,99741.75
2017-12-31T10:36:29.497Z,99743.95
2017-12-31T10:37:34.449Z,99730.14
2017-12-31T10:38:39.099Z,99737.83
2017-12-31T10:39:43.449Z,99731.08
2017-12-31T10:40:48.724Z,99727.91
2017-12-31T10:41:53.145Z,99722.25
2017-12-31T10:42:57.907Z,99726.30
2017-12-31T10:44:02.628Z,99724.02
2017-12-31T10:45:07.077Z,99736.02
2017-12-31T10:46:11.758Z,99727.12
2017-12-31T10:47:16.237Z,99731.91
2017-12-31T10:48:20.603Z,99739.48
2017-12-31T10:49:25.416Z,99731.00
2017-12-31T10:50:29.834Z,99726.48
2017-12-31T10:51:34.226Z,99720.05
2017-12-31T10:52:38.610Z,99732.61
2017-12-31T10:53:43.041Z,99720.05
2017-12-31T10:54:47.942Z,99728.92
2017-12-31T10:55:52.320Z,99710.70
2017-12-31T10:56:57.418Z,99708.04
2017-12-31T10:58:01.805Z,99711.66
2017-12-31T10:59:06.192Z,99714.48
2017-12-31T11:00:10.720Z,99718.80
2017-12-31T11:01:15.547Z,99711.61
2017-12-31T11:02:20.056Z,99720.05
2017-12-31T11:03:24.449Z,99712.44
2017-12-31T11:04:29.721Z,99715.02
2017-12-31T11:05:34.209Z,99714.67
2017-12-31T11:06:38.951Z,99718.91
2017-12-31T11:07:43.348Z,99720.95
2017-12-31T11:08:48.339Z,99724.05
2017-12-31T11:09:52.696Z,99724.44
2017-12-31T11:10:57.089Z,99731.55
2017-12-31T11:12:01.601Z,99725.45
2017-12-31T11:13:06.061Z,99722.73
2017-12-31T11:14:16.500Z,99714.73
2017-12-31T11:15:21.233Z,99712.13
2017-12-31T11:16:37.503Z,99718.72
2017-12-31T11:17:42.408Z,99728.15
2017-12-31T11:18:46.808Z,99728.54
2017-12-31T11:19:51.902Z,99723.24
2017-12-31T11:20:56.339Z,99729.48
2017-12-31T11:22:00.931Z,99730.94
2017-12-31T11:23:05.437Z,99725.56
2017-12-31T11:24:09.802Z,99721.20
2017-12-31T11:25:14.231Z,99733.61
2017-12-31T11:26:18.715Z,99714.69
2017-12-31T11:27:23.094Z,99715.28
2017-12-31T11:28:27.926Z,99721.91
2017-12-31T11:30:47.069Z,99719.76
2017-12-31T11:31:51.513Z,99711.95
2017-12-31T11:32:56.010Z,99727.74
2017-12-31T11:34:00.407Z,99701.17
2017-12-31T11:35:05.245Z,99715.14
2017-12-31T11:36:10.043Z,99708.05
2017-12-31T11:37:14.697Z,99695.87
2017-12-31T11:38:19.138Z,99705.80
2017-12-31T11:39:24.136Z,99701.05
2017-12-31T11:40:29.058Z,99693.48
2017-12-31T11:41:34.235Z,99690.30
2017-12-31T11:42:38.696Z,99704.91
2017-12-31T11:43:43.114Z,99706.71
2017-12-31T11:44:50.677Z,99692.18
2017-12-31T11:45:55.273Z,99692.77
2017-12-31T11:46:59.993Z,99693.25
2017-12-31T11:48:04.512Z,99695.09
2017-12-31T11:49:08.942Z,99683.55
2017-12-31T11:50:15.375Z,99692.38
2017-12-31T11:51:19.851Z,99689.75
2017-12-31T11:52:24.551Z,99687.13
2017-12-31T11:53:29.862Z,99685.70
2017-12-31T11:54:34.238Z,99681.16
2017-12-31T11:55:38.749Z,99682.84
2017-12-31T11:56:43.405Z,99674.80
2017-12-31T11:58:57.385Z,99664.12
2017-12-31T12:00:02.214Z,99673.66
2017-12-31T12:01:07.256Z,99666.66
2017-12-31T12:02:14.450Z,99651.91
2017-12-31T12:03:18.978Z,99650.80
2017-12-31T12:04:23.692Z,99650.87
2017-12-31T12:05:28.163Z,99651.54
2017-12-31T12:06:33.459Z,99655.16
2017-12-31T12:07:37.957Z,99639.92
2017-12-31T12:08:42.510Z,99645.77
2017-12-31T12:09:47.834Z,99643.58
2017-12-31T12:10:52.234Z,99644.88
2017-12-31T12:11:56.759Z,99649.86
2017-12-31T12:13:01.269Z,99648.95
2017-12-31T12:14:05.750Z,99644.44
2017-12-31T12:15:11.825Z,99641.07
2017-12-31T12:16:18.918Z,99654.03
2017-12-31T12:17:23.363Z,99640.31
2017-12-31T12:18:28.946Z,99644.36
2017-12-31T12:19:33.383Z,99643.92
2017-12-31T12:20:37.834Z,99632.85
2017-12-31T12:21:42.708Z,99631.01
2017-12-31T12:22:47.099Z,99627.09
2017-12-31T12:23:52.545Z,99632.86
2017-12-31T12:24:57.094Z,99635.98
2017-12-31T12:26:01.568Z,99622.58
2017-12-31T12:27:05.995Z,99623.55
2017-12-31T12:28:10.803Z,99606.66
2017-12-31T12:29:15.203Z,99608.63
2017-12-31T12:30:20.192Z,99614.53
2017-12-31T12:31:24.646Z,99611.42
2017-12-31T12:32:31.482Z,99618.06
2017-12-31T12:33:36.173Z,99605.57
2017-12-31T12:34:41.001Z,99619.31
2017-12-31T12:35:45.553Z,99609.06
2017-12-31T12:36:50.837Z,99602.86